Time;durP1;ratioP1;P1;durP2;ratioP2;P2;SDS_P1;SDS_P2;PMS_P1;PMS_P2;Temp;Humidity;BMP_temperature;BMP_pressure;BME280_temperature;BME280_humidity;BME280_pressure;Samples;Min_cycle;Max_cycle;Signal;HPM_P1;HPM_P2
2022/01/11 00:00:08;;;;;;;19.88;8.98;;;;;;;;;;4971562;28;20476;-70
2022/01/11 00:02:36;;;;;;;21.45;9.20;;;;;;;;;;4971612;28;20456;-70
2022/01/11 00:05:02;;;;;;;26.17;9.98;;;;;;;;;;4985556;28;20456;-70
2022/01/11 00:07:30;;;;;;;22.75;9.75;;;;;;;;;;4971960;28;20328;-70
2022/01/11 00:09:57;;;;;;;21.33;9.35;;;;;;;;;;4970815;28;20120;-70
2022/01/11 00:12:22;;;;;;;27.98;9.95;;;;;;;;;;4970908;28;20030;-71
2022/01/11 00:14:47;;;;;;;23.23;9.60;;;;;;;;;;4953176;28;20092;-70
2022/01/11 00:17:12;;;;;;;21.00;9.18;;;;;;;;;;4971036;28;20061;-70
2022/01/11 00:19:38;;;;;;;23.30;8.77;;;;;;;;;;4970590;28;20468;-70
2022/01/11 00:22:07;;;;;;;22.13;9.13;;;;;;;;;;4971107;28;20453;-70
2022/01/11 00:24:34;;;;;;;24.70;9.40;;;;;;;;;;4953287;28;20450;-70
2022/01/11 00:27:02;;;;;;;23.80;10.00;;;;;;;;;;4970856;28;20446;-70
2022/01/11 00:29:28;;;;;;;23.02;9.55;;;;;;;;;;4970510;28;20029;-70
2022/01/11 00:31:57;;;;;;;19.98;9.70;;;;;;;;;;4953212;28;20448;-70
2022/01/11 00:34:24;;;;;;;22.40;9.68;;;;;;;;;;4970522;28;20433;-70
2022/01/11 00:36:50;;;;;;;16.55;7.95;;;;;;;;;;4970301;28;20475;-71
2022/01/11 00:39:15;;;;;;;22.33;9.30;;;;;;;;;;4971142;28;20451;-70
2022/01/11 00:41:42;;;;;;;23.75;9.00;;;;;;;;;;4985974;28;20057;-71
2022/01/11 00:44:08;;;;;;;20.58;8.55;;;;;;;;;;4952507;28;20459;-70
2022/01/11 00:46:33;;;;;;;23.83;8.52;;;;;;;;;;4936416;28;20116;-70
2022/01/11 00:48:59;;;;;;;24.33;8.68;;;;;;;;;;4985149;28;20375;-70
2022/01/11 00:51:24;;;;;;;19.30;8.38;;;;;;;;;;4970207;28;20416;-70
2022/01/11 00:53:50;;;;;;;25.67;7.95;;;;;;;;;;4952663;28;20344;-70
2022/01/11 00:56:15;;;;;;;18.65;7.40;;;;;;;;;;4970438;28;20392;-71
2022/01/11 00:58:41;;;;;;;20.00;8.13;;;;;;;;;;4970064;28;20316;-70
2022/01/11 01:01:07;;;;;;;24.15;8.98;;;;;;;;;;4961003;28;20330;-70
2022/01/11 01:03:32;;;;;;;22.55;8.40;;;;;;;;;;4957568;28;20317;-70
2022/01/11 01:05:57;;;;;;;20.42;7.70;;;;;;;;;;4965333;28;20353;-70
2022/01/11 01:08:23;;;;;;;23.40;8.18;;;;;;;;;;4932887;28;20307;-70
2022/01/11 01:10:48;;;;;;;24.77;8.43;;;;;;;;;;4951200;28;20444;-70
2022/01/11 01:13:20;;;;;;;21.77;7.60;;;;;;;;;;4964915;28;20447;-71
2022/01/11 01:15:47;;;;;;;18.23;7.70;;;;;;;;;;4949695;28;20397;-71
2022/01/11 01:18:15;;;;;;;15.45;7.28;;;;;;;;;;4932821;28;20056;-70
2022/01/11 01:20:41;;;;;;;22.23;8.65;;;;;;;;;;4950301;28;20449;-70
2022/01/11 01:23:07;;;;;;;25.70;8.68;;;;;;;;;;4932373;28;20477;-70
2022/01/11 01:25:32;;;;;;;27.55;9.35;;;;;;;;;;4965105;28;20454;-70
2022/01/11 01:27:58;;;;;;;18.17;8.55;;;;;;;;;;4964621;28;20419;-70
2022/01/11 01:30:23;;;;;;;16.85;7.80;;;;;;;;;;4916187;28;20053;-70
2022/01/11 01:32:50;;;;;;;21.55;7.90;;;;;;;;;;4965390;28;20502;-70
2022/01/11 01:35:17;;;;;;;22.88;8.40;;;;;;;;;;4951011;28;20479;-70
2022/01/11 01:37:43;;;;;;;19.98;6.95;;;;;;;;;;4931609;28;20034;-70
2022/01/11 01:40:09;;;;;;;19.60;7.63;;;;;;;;;;4965362;28;20483;-70
2022/01/11 01:42:35;;;;;;;18.50;7.93;;;;;;;;;;4932256;28;20052;-70
2022/01/11 01:45:01;;;;;;;19.02;7.40;;;;;;;;;;4932773;28;20386;-70
2022/01/11 01:47:27;;;;;;;24.65;7.95;;;;;;;;;;4933125;28;20135;-70
2022/01/11 01:49:53;;;;;;;19.67;8.38;;;;;;;;;;4949743;28;20038;-70
2022/01/11 01:52:18;;;;;;;21.20;8.18;;;;;;;;;;4949474;28;20348;-70
2022/01/11 01:54:44;;;;;;;17.33;7.32;;;;;;;;;;4931932;28;20365;-70
2022/01/11 01:57:09;;;;;;;20.27;7.57;;;;;;;;;;4949451;28;20449;-70
2022/01/11 01:59:35;;;;;;;17.40;6.30;;;;;;;;;;4949432;28;20461;-70
2022/01/11 02:02:01;;;;;;;14.18;5.32;;;;;;;;;;4931707;28;20108;-70
2022/01/11 02:04:26;;;;;;;20.52;8.20;;;;;;;;;;4951600;28;20477;-70
2022/01/11 02:06:51;;;;;;;15.55;7.05;;;;;;;;;;4932848;28;20352;-70
2022/01/11 02:09:17;;;;;;;16.38;7.70;;;;;;;;;;4949156;28;20433;-70
2022/01/11 02:11:43;;;;;;;15.13;6.28;;;;;;;;;;4932055;28;20381;-70
2022/01/11 02:14:09;;;;;;;13.63;6.65;;;;;;;;;;4931688;28;20038;-70
2022/01/11 02:16:34;;;;;;;16.40;8.40;;;;;;;;;;4949556;28;20026;-70
2022/01/11 02:19:00;;;;;;;23.63;7.65;;;;;;;;;;4931929;28;20314;-70
2022/01/11 02:21:25;;;;;;;19.00;7.15;;;;;;;;;;4964321;28;20428;-70
2022/01/11 02:23:51;;;;;;;21.98;7.25;;;;;;;;;;4949285;28;20568;-70
2022/01/11 02:26:17;;;;;;;18.33;7.15;;;;;;;;;;4949754;28;20377;-70
2022/01/11 02:28:42;;;;;;;21.27;7.88;;;;;;;;;;4949105;28;20434;-70
2022/01/11 02:31:12;;;;;;;16.13;7.22;;;;;;;;;;4964174;28;20373;-70
2022/01/11 02:33:44;;;;;;;17.55;7.30;;;;;;;;;;4932761;28;20510;-70
2022/01/11 02:36:19;;;;;;;20.20;7.40;;;;;;;;;;4932103;28;20333;-70
2022/01/11 02:38:49;;;;;;;20.58;7.55;;;;;;;;;;4931947;28;20377;-70
2022/01/11 02:41:15;;;;;;;21.35;5.90;;;;;;;;;;4931655;28;20436;-70
2022/01/11 02:43:42;;;;;;;18.55;7.20;;;;;;;;;;4932337;28;20428;-70
2022/01/11 02:46:07;;;;;;;19.02;7.40;;;;;;;;;;4931767;28;20405;-70
2022/01/11 02:48:33;;;;;;;15.77;6.45;;;;;;;;;;4952219;28;20413;-70
2022/01/11 02:50:58;;;;;;;11.98;5.50;;;;;;;;;;4967819;28;20073;-70
2022/01/11 02:53:23;;;;;;;18.83;7.20;;;;;;;;;;4967184;28;20316;-70
2022/01/11 02:55:49;;;;;;;14.60;6.97;;;;;;;;;;4952456;28;20423;-70
2022/01/11 02:58:14;;;;;;;18.92;7.38;;;;;;;;;;4953014;28;20465;-71
2022/01/11 03:00:40;;;;;;;18.23;7.10;;;;;;;;;;4952020;28;20334;-70
2022/01/11 03:03:20;;;;;;;14.15;6.30;;;;;;;;;;4935811;28;20080;-70
2022/01/11 03:05:47;;;;;;;13.73;6.45;;;;;;;;;;4952481;28;20430;-70
2022/01/11 03:08:14;;;;;;;17.70;6.78;;;;;;;;;;4952520;28;20449;-70
2022/01/11 03:10:39;;;;;;;15.38;5.82;;;;;;;;;;4934917;28;20337;-70
2022/01/11 03:13:06;;;;;;;16.23;7.07;;;;;;;;;;4968105;28;20044;-70
2022/01/11 03:15:33;;;;;;;19.85;7.65;;;;;;;;;;4934637;28;20353;-70
2022/01/11 03:17:59;;;;;;;13.48;7.03;;;;;;;;;;4952460;28;20433;-70
2022/01/11 03:20:24;;;;;;;21.63;6.60;;;;;;;;;;4951834;28;20437;-70
2022/01/11 03:22:50;;;;;;;18.85;6.63;;;;;;;;;;4967297;28;20401;-70
2022/01/11 03:25:17;;;;;;;16.13;6.60;;;;;;;;;;4953600;28;20358;-70
2022/01/11 03:27:43;;;;;;;15.13;6.43;;;;;;;;;;4953206;28;20468;-70
2022/01/11 03:30:09;;;;;;;15.85;5.53;;;;;;;;;;4934423;28;20485;-70
2022/01/11 03:32:34;;;;;;;17.83;6.35;;;;;;;;;;4952115;28;20460;-69
2022/01/11 03:35:00;;;;;;;14.10;5.88;;;;;;;;;;4951970;28;20468;-70
2022/01/11 03:37:25;;;;;;;14.55;6.43;;;;;;;;;;4952202;28;20469;-70
2022/01/11 03:39:51;;;;;;;14.27;6.40;;;;;;;;;;4952479;28;20091;-70
2022/01/11 03:42:16;;;;;;;14.70;6.35;;;;;;;;;;4952062;28;20340;-70
2022/01/11 03:44:42;;;;;;;13.68;6.90;;;;;;;;;;4952764;28;20498;-70
2022/01/11 03:47:07;;;;;;;17.20;6.85;;;;;;;;;;4952394;28;20563;-70
2022/01/11 03:49:33;;;;;;;13.05;5.90;;;;;;;;;;4934120;28;20372;-70
2022/01/11 03:51:59;;;;;;;17.55;5.53;;;;;;;;;;4951950;28;20380;-70
2022/01/11 03:54:28;;;;;;;17.55;7.00;;;;;;;;;;4952273;28;20322;-70
2022/01/11 03:56:53;;;;;;;18.33;7.22;;;;;;;;;;4952763;28;20437;-70
2022/01/11 03:59:19;;;;;;;16.88;6.32;;;;;;;;;;4932947;28;20397;-69
2022/01/11 04:01:45;;;;;;;14.13;5.80;;;;;;;;;;4951476;28;20449;-70
2022/01/11 04:04:10;;;;;;;12.73;5.60;;;;;;;;;;4951921;28;20527;-70
2022/01/11 04:06:37;;;;;;;17.10;6.78;;;;;;;;;;4966216;28;20333;-70
2022/01/11 04:09:04;;;;;;;12.38;5.35;;;;;;;;;;4934234;28;20135;-70
2022/01/11 04:11:30;;;;;;;12.23;6.18;;;;;;;;;;4934057;28;20302;-71
2022/01/11 04:13:56;;;;;;;13.13;5.90;;;;;;;;;;4952437;28;20315;-70
2022/01/11 04:16:21;;;;;;;11.35;5.38;;;;;;;;;;4952780;28;20333;-70
2022/01/11 04:18:46;;;;;;;16.42;6.13;;;;;;;;;;4933879;28;20409;-69
2022/01/11 04:21:12;;;;;;;11.70;5.55;;;;;;;;;;4966361;28;20455;-71
2022/01/11 04:23:38;;;;;;;10.50;5.30;;;;;;;;;;4951474;28;20353;-70
2022/01/11 04:26:04;;;;;;;12.65;5.03;;;;;;;;;;4951586;28;20468;-70
2022/01/11 04:28:29;;;;;;;13.00;5.65;;;;;;;;;;4950767;28;20421;-70
2022/01/11 04:30:59;;;;;;;12.13;5.53;;;;;;;;;;4951695;28;20532;-72
2022/01/11 04:33:29;;;;;;;14.98;6.00;;;;;;;;;;4933961;28;20341;-70
2022/01/11 04:35:54;;;;;;;;;;;;;;;;;;4951764;28;20368;-70
2022/01/11 04:38:23;;;;;;;14.57;5.88;;;;;;;;;;4965329;28;19917;-70
2022/01/11 04:40:48;;;;;;;14.13;5.67;;;;;;;;;;4965547;28;20349;-70
2022/01/11 04:43:14;;;;;;;12.75;4.88;;;;;;;;;;4950757;28;20340;-73
2022/01/11 04:45:39;;;;;;;10.40;5.18;;;;;;;;;;4950685;28;20499;-70
2022/01/11 04:48:05;;;;;;;14.02;5.97;;;;;;;;;;4950498;28;20373;-70
2022/01/11 04:50:31;;;;;;;13.60;5.30;;;;;;;;;;4933571;28;20372;-70
2022/01/11 04:52:57;;;;;;;13.85;5.50;;;;;;;;;;4965322;28;20500;-70
2022/01/11 04:55:23;;;;;;;12.82;5.60;;;;;;;;;;4933409;28;20413;-70
2022/01/11 04:57:48;;;;;;;12.32;5.47;;;;;;;;;;4933057;28;20443;-71
2022/01/11 05:00:16;;;;;;;11.52;5.50;;;;;;;;;;4950184;28;20465;-70
2022/01/11 05:02:41;;;;;;;10.52;4.93;;;;;;;;;;4950040;28;20026;-70
2022/01/11 05:05:07;;;;;;;11.25;4.82;;;;;;;;;;4966089;28;20053;-70
2022/01/11 05:07:32;;;;;;;12.90;6.03;;;;;;;;;;4951307;28;20484;-70
2022/01/11 05:09:58;;;;;;;9.82;5.10;;;;;;;;;;4932368;28;20507;-70
2022/01/11 05:12:23;;;;;;;15.63;5.82;;;;;;;;;;4963987;28;20406;-70
2022/01/11 05:14:49;;;;;;;12.45;5.05;;;;;;;;;;4965757;28;20025;-70
2022/01/11 05:17:14;;;;;;;14.10;5.50;;;;;;;;;;4932758;28;20340;-70
2022/01/11 05:19:39;;;;;;;8.77;4.35;;;;;;;;;;4951016;28;20096;-71
2022/01/11 05:22:05;;;;;;;15.73;5.90;;;;;;;;;;4950106;28;20365;-70
2022/01/11 05:24:30;;;;;;;16.52;6.10;;;;;;;;;;4950895;28;20414;-70
2022/01/11 05:26:55;;;;;;;8.25;5.07;;;;;;;;;;4950059;28;20345;-70
2022/01/11 05:29:21;;;;;;;12.57;4.45;;;;;;;;;;4950466;28;20345;-70
2022/01/11 05:31:46;;;;;;;15.70;5.40;;;;;;;;;;4951663;28;20318;-71
2022/01/11 05:34:11;;;;;;;10.68;5.20;;;;;;;;;;4949730;28;20100;-70
2022/01/11 05:36:37;;;;;;;20.40;6.38;;;;;;;;;;4949721;28;20404;-70
2022/01/11 05:39:03;;;;;;;22.73;6.93;;;;;;;;;;4964548;28;20389;-70
2022/01/11 05:41:30;;;;;;;17.45;5.85;;;;;;;;;;4932478;28;20033;-69
2022/01/11 05:43:57;;;;;;;16.85;5.70;;;;;;;;;;4931873;28;20357;-70
2022/01/11 05:46:23;;;;;;;18.98;6.22;;;;;;;;;;4964131;28;20488;-70
2022/01/11 05:48:48;;;;;;;28.98;8.23;;;;;;;;;;4965632;28;20407;-70
2022/01/11 05:51:15;;;;;;;22.67;9.50;;;;;;;;;;4948061;28;20307;-71
2022/01/11 05:53:41;;;;;;;51.55;18.13;;;;;;;;;;4964434;28;20112;-70
2022/01/11 05:56:08;;;;;;;26.98;9.50;;;;;;;;;;4932092;28;20441;-70
2022/01/11 05:58:33;;;;;;;27.00;9.00;;;;;;;;;;4949910;28;20323;-69
2022/01/11 06:00:59;;;;;;;41.42;10.50;;;;;;;;;;4964329;28;20401;-70
2022/01/11 06:03:24;;;;;;;29.95;9.98;;;;;;;;;;4949185;28;20401;-69
2022/01/11 06:05:50;;;;;;;39.03;12.20;;;;;;;;;;4949807;28;20409;-70
2022/01/11 06:08:16;;;;;;;39.20;9.57;;;;;;;;;;4949349;28;20338;-70
2022/01/11 06:10:43;;;;;;;28.63;9.50;;;;;;;;;;4949447;28;20456;-69
2022/01/11 06:13:09;;;;;;;33.22;10.00;;;;;;;;;;4950913;28;20465;-70
2022/01/11 06:15:34;;;;;;;34.97;9.88;;;;;;;;;;4949841;28;20535;-70
2022/01/11 06:18:00;;;;;;;36.03;10.13;;;;;;;;;;4949581;28;20429;-70
2022/01/11 06:20:25;;;;;;;36.85;10.73;;;;;;;;;;4949742;28;20376;-70
2022/01/11 06:22:51;;;;;;;31.48;10.60;;;;;;;;;;4950869;28;20421;-70
2022/01/11 06:25:16;;;;;;;33.40;10.55;;;;;;;;;;4953155;28;20426;-69
2022/01/11 06:27:42;;;;;;;33.58;9.82;;;;;;;;;;4955280;28;20096;-70
2022/01/11 06:30:09;;;;;;;35.10;10.35;;;;;;;;;;4952977;28;20437;-69
2022/01/11 06:32:34;;;;;;;27.73;9.90;;;;;;;;;;4935624;28;20441;-70
2022/01/11 06:34:59;;;;;;;24.17;8.30;;;;;;;;;;4935648;28;20425;-70
2022/01/11 06:37:25;;;;;;;28.50;9.48;;;;;;;;;;4952763;28;20476;-69
2022/01/11 06:39:50;;;;;;;23.10;8.60;;;;;;;;;;4953461;28;20429;-69
2022/01/11 06:42:16;;;;;;;22.15;9.45;;;;;;;;;;4952733;28;20330;-70
2022/01/11 06:44:42;;;;;;;25.27;8.63;;;;;;;;;;4935819;28;20433;-69
2022/01/11 06:47:08;;;;;;;36.58;10.45;;;;;;;;;;4953080;28;20441;-69
2022/01/11 06:49:33;;;;;;;25.30;9.35;;;;;;;;;;4953879;28;20468;-69
2022/01/11 06:51:59;;;;;;;29.05;9.43;;;;;;;;;;4952754;28;20034;-69
2022/01/11 06:54:24;;;;;;;30.30;10.05;;;;;;;;;;4952809;28;20380;-69
2022/01/11 06:56:49;;;;;;;24.98;8.55;;;;;;;;;;4936003;28;20340;-69
2022/01/11 06:59:14;;;;;;;26.98;8.98;;;;;;;;;;4952841;28;20372;-69
2022/01/11 07:01:40;;;;;;;27.35;9.20;;;;;;;;;;4952304;28;20152;-71
2022/01/11 07:04:05;;;;;;;24.27;9.55;;;;;;;;;;4952863;28;20472;-69
2022/01/11 07:06:31;;;;;;;25.33;8.75;;;;;;;;;;4953398;28;20337;-70
2022/01/11 07:08:56;;;;;;;32.53;9.65;;;;;;;;;;4952501;28;20398;-69
2022/01/11 07:11:23;;;;;;;21.95;7.80;;;;;;;;;;4952471;28;20306;-69
2022/01/11 07:13:49;;;;;;;28.60;9.57;;;;;;;;;;4967458;28;20434;-69
2022/01/11 07:16:14;;;;;;;20.48;9.02;;;;;;;;;;4934368;28;20355;-69
2022/01/11 07:18:39;;;;;;;26.20;10.38;;;;;;;;;;4952632;28;20033;-69
2022/01/11 07:21:05;;;;;;;27.02;8.77;;;;;;;;;;4953911;28;20368;-69
2022/01/11 07:23:30;;;;;;;22.10;9.48;;;;;;;;;;4967419;28;20376;-69
2022/01/11 07:25:55;;;;;;;32.60;9.80;;;;;;;;;;4967553;28;20453;-69
2022/01/11 07:28:21;;;;;;;29.00;9.52;;;;;;;;;;4952390;28;20105;-69
2022/01/11 07:30:46;;;;;;;24.35;8.27;;;;;;;;;;4952324;28;20480;-70
2022/01/11 07:33:11;;;;;;;22.85;8.35;;;;;;;;;;4952838;28;20052;-69
2022/01/11 07:35:37;;;;;;;27.10;8.95;;;;;;;;;;4951038;28;20476;-69
2022/01/11 07:38:02;;;;;;;22.48;8.73;;;;;;;;;;4952154;28;20026;-69
2022/01/11 07:40:27;;;;;;;25.45;9.73;;;;;;;;;;4951966;28;20444;-69
2022/01/11 07:42:53;;;;;;;23.92;9.18;;;;;;;;;;4952162;28;20034;-69
2022/01/11 07:45:19;;;;;;;24.88;8.25;;;;;;;;;;4951834;28;20413;-69
2022/01/11 07:47:44;;;;;;;29.10;9.50;;;;;;;;;;4951916;28;20591;-70
2022/01/11 07:50:10;;;;;;;22.63;8.82;;;;;;;;;;4952486;28;20376;-69
2022/01/11 07:52:36;;;;;;;21.88;8.52;;;;;;;;;;4950226;28;20492;-69
2022/01/11 07:55:02;;;;;;;21.83;8.93;;;;;;;;;;4951765;28;20483;-69
2022/01/11 07:57:27;;;;;;;22.58;8.35;;;;;;;;;;4934339;28;20405;-69
2022/01/11 07:59:53;;;;;;;22.25;8.55;;;;;;;;;;4933888;28;20549;-69
2022/01/11 08:02:18;;;;;;;20.02;8.57;;;;;;;;;;4933691;28;20338;-69
2022/01/11 08:04:43;;;;;;;24.40;9.05;;;;;;;;;;4952125;28;20022;-69
2022/01/11 08:07:10;;;;;;;21.20;8.63;;;;;;;;;;4933377;28;20140;-69
2022/01/11 08:09:36;;;;;;;24.08;9.73;;;;;;;;;;4949864;28;20349;-69
2022/01/11 08:12:02;;;;;;;21.52;8.05;;;;;;;;;;4917438;28;20326;-69
2022/01/11 08:14:29;;;;;;;22.67;8.07;;;;;;;;;;4933908;28;20184;-69
2022/01/11 08:16:54;;;;;;;24.98;9.15;;;;;;;;;;4950678;28;20373;-69
2022/01/11 08:19:25;;;;;;;24.75;9.80;;;;;;;;;;4933968;28;20391;-69
2022/01/11 08:21:53;;;;;;;23.73;10.02;;;;;;;;;;4951243;28;20137;-69
2022/01/11 08:24:21;;;;;;;20.50;9.00;;;;;;;;;;4951119;28;20457;-69
2022/01/11 08:26:46;;;;;;;26.20;10.23;;;;;;;;;;4966136;28;20381;-69
2022/01/11 08:29:12;;;;;;;21.65;9.38;;;;;;;;;;4951065;28;20388;-70
2022/01/11 08:31:37;;;;;;;24.15;10.15;;;;;;;;;;4951271;28;20592;-69
2022/01/11 08:34:02;;;;;;;27.65;9.13;;;;;;;;;;4933502;28;20422;-69
2022/01/11 08:36:28;;;;;;;28.75;10.55;;;;;;;;;;4951127;28;20157;-69
2022/01/11 08:38:53;;;;;;;24.73;9.65;;;;;;;;;;4950525;28;20488;-69
2022/01/11 08:41:22;;;;;;;24.48;8.75;;;;;;;;;;4950697;28;20389;-69
2022/01/11 08:43:47;;;;;;;23.08;9.40;;;;;;;;;;4952184;28;20295;-69
2022/01/11 08:46:16;;;;;;;25.42;9.13;;;;;;;;;;4950548;28;20350;-70
2022/01/11 08:48:41;;;;;;;22.52;9.43;;;;;;;;;;4951532;28;20500;-69
2022/01/11 08:51:06;;;;;;;23.90;9.13;;;;;;;;;;4933101;28;20502;-69
2022/01/11 08:53:32;;;;;;;21.08;10.07;;;;;;;;;;4916498;28;20437;-69
2022/01/11 08:55:57;;;;;;;19.50;8.73;;;;;;;;;;4950941;28;20507;-69
2022/01/11 08:58:23;;;;;;;20.88;8.15;;;;;;;;;;4950741;28;20384;-69
2022/01/11 09:00:49;;;;;;;19.92;9.38;;;;;;;;;;4950018;28;20428;-70
2022/01/11 09:03:17;;;;;;;22.45;8.90;;;;;;;;;;4950370;28;20479;-69
2022/01/11 09:05:43;;;;;;;22.25;9.00;;;;;;;;;;4951743;28;20417;-70
2022/01/11 09:08:10;;;;;;;27.58;9.95;;;;;;;;;;4950405;28;20448;-71
2022/01/11 09:10:37;;;;;;;27.55;11.10;;;;;;;;;;4932593;28;20587;-70
2022/01/11 09:13:02;;;;;;;24.02;9.13;;;;;;;;;;4933019;28;20403;-70
2022/01/11 09:15:28;;;;;;;23.63;9.23;;;;;;;;;;4951417;28;20083;-69
2022/01/11 09:17:54;;;;;;;28.90;10.25;;;;;;;;;;4950515;28;20510;-70
2022/01/11 09:20:20;;;;;;;29.55;10.55;;;;;;;;;;4932953;28;20073;-69
2022/01/11 09:22:45;;;;;;;20.17;8.80;;;;;;;;;;4950335;28;20500;-70
2022/01/11 09:25:12;;;;;;;33.85;9.57;;;;;;;;;;4965257;28;20034;-70
2022/01/11 09:27:37;;;;;;;23.10;9.30;;;;;;;;;;4932218;28;20460;-69
2022/01/11 09:30:08;;;;;;;27.27;9.82;;;;;;;;;;4950322;28;20516;-70
2022/01/11 09:32:34;;;;;;;21.30;9.73;;;;;;;;;;4932511;28;20049;-70
2022/01/11 09:35:00;;;;;;;25.00;10.15;;;;;;;;;;4950713;28;20403;-72
2022/01/11 09:37:26;;;;;;;27.90;10.57;;;;;;;;;;4932365;28;20322;-69
2022/01/11 09:39:51;;;;;;;23.50;9.27;;;;;;;;;;4950338;28;20425;-69
2022/01/11 09:42:17;;;;;;;23.48;10.32;;;;;;;;;;4950487;28;20030;-70
2022/01/11 09:44:43;;;;;;;28.33;10.63;;;;;;;;;;4932581;28;20099;-70
2022/01/11 09:47:11;;;;;;;20.90;8.85;;;;;;;;;;4949651;28;20456;-69
2022/01/11 09:49:37;;;;;;;24.55;9.30;;;;;;;;;;4949818;28;20357;-69
2022/01/11 09:52:06;;;;;;;24.73;8.63;;;;;;;;;;4932629;28;20045;-69
2022/01/11 09:54:32;;;;;;;24.42;8.38;;;;;;;;;;4932963;28;20425;-70
2022/01/11 09:56:58;;;;;;;20.05;9.43;;;;;;;;;;4949234;28;20357;-70
2022/01/11 09:59:23;;;;;;;23.15;8.98;;;;;;;;;;4949710;28;20470;-70
2022/01/11 10:01:48;;;;;;;27.08;9.45;;;;;;;;;;4949549;28;20045;-70
2022/01/11 10:04:16;;;;;;;23.10;8.05;;;;;;;;;;4964444;28;20358;-70
2022/01/11 10:06:42;;;;;;;18.60;8.85;;;;;;;;;;4949967;28;20408;-70
2022/01/11 10:09:11;;;;;;;22.13;8.82;;;;;;;;;;4932054;28;20349;-70
2022/01/11 10:11:38;;;;;;;23.60;8.63;;;;;;;;;;4949767;28;20431;-70
2022/01/11 10:14:32;;;;;;;19.98;9.07;;;;;;;;;;4932123;28;20061;-70
2022/01/11 10:17:18;;;;;;;24.40;9.50;;;;;;;;;;4950270;28;20025;-70
2022/01/11 10:19:49;;;;;;;20.83;8.68;;;;;;;;;;4964704;28;20433;-70
2022/01/11 10:22:17;;;;;;;21.83;8.45;;;;;;;;;;4931520;28;20385;-70
2022/01/11 10:24:45;;;;;;;16.37;8.17;;;;;;;;;;4932122;28;20421;-70
2022/01/11 10:27:14;;;;;;;18.45;8.07;;;;;;;;;;4932083;28;20388;-70
2022/01/11 10:29:42;;;;;;;25.67;9.45;;;;;;;;;;4931806;28;20030;-70
2022/01/11 10:32:31;;;;;;;24.40;8.65;;;;;;;;;;4932075;28;20504;-70
2022/01/11 10:35:02;;;;;;;20.70;9.13;;;;;;;;;;4948338;28;20500;-70
2022/01/11 10:37:33;;;;;;;20.77;8.80;;;;;;;;;;4931886;28;20456;-70
2022/01/11 10:40:14;;;;;;;18.77;8.20;;;;;;;;;;4931918;28;20072;-70
2022/01/11 10:42:48;;;;;;;22.88;8.15;;;;;;;;;;4949599;28;20401;-70
2022/01/11 10:45:19;;;;;;;19.48;8.15;;;;;;;;;;4964277;28;20026;-70
2022/01/11 10:47:47;;;;;;;19.58;7.90;;;;;;;;;;4949065;28;20463;-70
2022/01/11 10:50:30;;;;;;;18.90;8.18;;;;;;;;;;4931924;28;20440;-70
2022/01/11 10:53:00;;;;;;;17.30;7.50;;;;;;;;;;4931509;28;20334;-71
2022/01/11 10:55:29;;;;;;;20.70;8.55;;;;;;;;;;4949641;28;20300;-72
2022/01/11 10:57:55;;;;;;;;;;;;;;;;;;4950036;28;20384;-70
2022/01/11 11:00:23;;;;;;;16.63;7.22;;;;;;;;;;4931280;28;20234;-70
2022/01/11 11:02:55;;;;;;;19.23;8.48;;;;;;;;;;4932032;28;20077;-70
2022/01/11 11:05:25;;;;;;;17.30;7.45;;;;;;;;;;4931639;28;20044;-71
2022/01/11 11:07:55;;;;;;;18.13;7.55;;;;;;;;;;4964027;28;20333;-71
2022/01/11 11:10:41;;;;;;;19.30;8.65;;;;;;;;;;4951768;28;20033;-70
2022/01/11 11:13:09;;;;;;;18.85;8.57;;;;;;;;;;4934755;28;20368;-71
2022/01/11 11:15:39;;;;;;;13.07;6.22;;;;;;;;;;4953303;28;20372;-70
2022/01/11 11:18:07;;;;;;;19.00;7.07;;;;;;;;;;4934942;28;20477;-71
2022/01/11 11:20:35;;;;;;;18.38;8.25;;;;;;;;;;4953314;28;20460;-71
2022/01/11 11:23:03;;;;;;;19.35;8.50;;;;;;;;;;4952511;28;20388;-71
2022/01/11 11:25:29;;;;;;;17.58;8.23;;;;;;;;;;4934758;28;20473;-71
2022/01/11 11:27:55;;;;;;;16.17;7.28;;;;;;;;;;4935201;28;20480;-71
2022/01/11 11:30:21;;;;;;;20.98;7.47;;;;;;;;;;4952569;28;20530;-70
2022/01/11 11:32:46;;;;;;;15.95;7.07;;;;;;;;;;4952322;28;20424;-71
2022/01/11 11:35:14;;;;;;;14.07;6.97;;;;;;;;;;4967013;28;20125;-71
2022/01/11 11:37:39;;;;;;;18.55;7.78;;;;;;;;;;4952829;28;20369;-71
2022/01/11 11:40:09;;;;;;;17.02;7.57;;;;;;;;;;4934065;28;20033;-71
2022/01/11 11:42:35;;;;;;;18.35;7.40;;;;;;;;;;4934326;28;20350;-71
2022/01/11 11:45:05;;;;;;;17.23;7.20;;;;;;;;;;4933987;28;20345;-71
2022/01/11 11:47:34;;;;;;;17.65;7.38;;;;;;;;;;4934489;28;20404;-71
2022/01/11 11:50:02;;;;;;;18.38;6.60;;;;;;;;;;4934707;28;20453;-71
2022/01/11 11:52:31;;;;;;;20.05;7.80;;;;;;;;;;4934844;28;20465;-71
2022/01/11 11:55:20;;;;;;;18.07;7.70;;;;;;;;;;4966815;28;20369;-71
2022/01/11 11:57:48;;;;;;;14.27;7.38;;;;;;;;;;4952292;28;20713;-71
2022/01/11 12:00:18;;;;;;;15.10;6.97;;;;;;;;;;4933804;28;20476;-72
2022/01/11 12:02:46;;;;;;;15.10;7.07;;;;;;;;;;4966517;28;20457;-71
2022/01/11 12:05:31;;;;;;;13.07;6.15;;;;;;;;;;4951926;28;20076;-71
2022/01/11 12:07:57;;;;;;;21.55;7.28;;;;;;;;;;4951537;28;20437;-71
2022/01/11 12:10:54;;;;;;;13.85;6.82;;;;;;;;;;4934306;28;20325;-71
2022/01/11 12:13:43;;;;;;;14.45;5.85;;;;;;;;;;4876964;28;20531;-72
2022/01/11 12:16:24;;;;;;;15.25;6.53;;;;;;;;;;4950860;28;20498;-71
2022/01/11 12:18:50;;;;;;;15.32;6.95;;;;;;;;;;4966111;28;20423;-71
2022/01/11 12:21:16;;;;;;;17.10;6.70;;;;;;;;;;4934404;28;20508;-71
2022/01/11 12:23:43;;;;;;;16.25;7.47;;;;;;;;;;4951679;28;20444;-71
2022/01/11 12:26:34;;;;;;;17.83;7.50;;;;;;;;;;4951460;28;20367;-71
2022/01/11 12:29:02;;;;;;;15.52;7.60;;;;;;;;;;4934081;28;20437;-71
2022/01/11 12:31:29;;;;;;;20.83;9.47;;;;;;;;;;4951080;28;20444;-71
2022/01/11 12:33:55;;;;;;;20.20;8.02;;;;;;;;;;4966515;28;20092;-71
2022/01/11 12:36:20;;;;;;;22.20;9.05;;;;;;;;;;4933409;28;20661;-72
2022/01/11 12:39:04;;;;;;;19.50;8.15;;;;;;;;;;4951509;28;20433;-71
2022/01/11 12:41:31;;;;;;;24.08;8.13;;;;;;;;;;4950883;28;20318;-71
2022/01/11 12:44:23;;;;;;;17.08;7.20;;;;;;;;;;4933621;28;20375;-72
2022/01/11 12:46:54;;;;;;;24.98;8.75;;;;;;;;;;4965236;28;20329;-72
2022/01/11 12:49:20;;;;;;;23.52;8.80;;;;;;;;;;4933155;28;20542;-71
2022/01/11 12:51:53;;;;;;;21.35;8.63;;;;;;;;;;4933688;28;20394;-71
2022/01/11 12:54:33;;;;;;;24.60;8.02;;;;;;;;;;4951304;28;20452;-71
2022/01/11 12:57:20;;;;;;;19.02;8.18;;;;;;;;;;4932841;28;20521;-72
2022/01/11 12:59:53;;;;;;;22.00;8.75;;;;;;;;;;4932830;28;20429;-71
2022/01/11 13:02:23;;;;;;;22.40;8.55;;;;;;;;;;4933151;28;20412;-71
2022/01/11 13:04:52;;;;;;;32.60;10.32;;;;;;;;;;4950839;28;20033;-71
2022/01/11 13:07:21;;;;;;;21.67;8.35;;;;;;;;;;4950714;28;20433;-72
2022/01/11 13:09:56;;;;;;;25.87;9.73;;;;;;;;;;4950144;28;20353;-72
2022/01/11 13:12:30;;;;;;;24.95;8.75;;;;;;;;;;4933041;28;20571;-71
2022/01/11 13:15:03;;;;;;;25.10;8.68;;;;;;;;;;4933217;28;20442;-71
2022/01/11 13:17:28;;;;;;;24.63;9.35;;;;;;;;;;4932930;28;20136;-71
2022/01/11 13:20:05;;;;;;;27.17;8.77;;;;;;;;;;4965676;28;20030;-71
2022/01/11 13:22:33;;;;;;;19.85;8.32;;;;;;;;;;4932738;28;20391;-72
2022/01/11 13:24:58;;;;;;;25.35;9.15;;;;;;;;;;4951537;28;20381;-71
2022/01/11 13:27:23;;;;;;;27.20;9.68;;;;;;;;;;4951361;28;20144;-71
2022/01/11 13:29:49;;;;;;;26.90;8.98;;;;;;;;;;4951893;28;20488;-71
2022/01/11 13:32:14;;;;;;;23.50;9.07;;;;;;;;;;4964234;28;20437;-72
2022/01/11 13:34:40;;;;;;;28.35;9.60;;;;;;;;;;4932336;28;20029;-72
2022/01/11 13:37:05;;;;;;;19.98;8.38;;;;;;;;;;4932889;28;20414;-72
2022/01/11 13:39:38;;;;;;;26.48;9.95;;;;;;;;;;4950949;28;20317;-71
2022/01/11 13:42:10;;;;;;;18.95;8.55;;;;;;;;;;4949752;28;20527;-71
2022/01/11 13:44:37;;;;;;;21.77;9.65;;;;;;;;;;4949914;28;20384;-72
2022/01/11 13:47:06;;;;;;;23.02;9.15;;;;;;;;;;4932238;28;20471;-72
2022/01/11 13:49:40;;;;;;;26.17;8.65;;;;;;;;;;4932246;28;20461;-71
2022/01/11 13:52:12;;;;;;;26.58;8.80;;;;;;;;;;4932219;28;20373;-71
2022/01/11 13:54:40;;;;;;;21.00;8.82;;;;;;;;;;4932612;28;20462;-71
2022/01/11 13:57:13;;;;;;;26.20;10.27;;;;;;;;;;4948374;28;20326;-71
2022/01/11 13:59:39;;;;;;;24.15;9.52;;;;;;;;;;4932037;28;20346;-71
2022/01/11 14:02:15;;;;;;;27.25;9.35;;;;;;;;;;4949088;28;20089;-71
2022/01/11 14:04:44;;;;;;;30.02;9.88;;;;;;;;;;4932493;28;20445;-71
2022/01/11 14:07:11;;;;;;;22.77;8.93;;;;;;;;;;4931957;28;20464;-72
2022/01/11 14:09:41;;;;;;;23.33;9.98;;;;;;;;;;4949675;28;20049;-71
2022/01/11 14:12:12;;;;;;;27.50;10.82;;;;;;;;;;4949714;28;20377;-71
2022/01/11 14:14:37;;;;;;;24.27;10.45;;;;;;;;;;4949480;28;20369;-71
2022/01/11 14:17:16;;;;;;;26.42;9.85;;;;;;;;;;4949713;28;20369;-71
2022/01/11 14:20:05;;;;;;;24.13;9.63;;;;;;;;;;4950573;28;20314;-70
2022/01/11 14:22:36;;;;;;;23.30;9.07;;;;;;;;;;4965158;28;20341;-71
2022/01/11 14:25:02;;;;;;;24.63;9.48;;;;;;;;;;4949652;28;20321;-71
2022/01/11 14:27:32;;;;;;;22.75;9.35;;;;;;;;;;4949206;28;20030;-71
2022/01/11 14:30:04;;;;;;;20.40;8.88;;;;;;;;;;4949710;28;20317;-71